Tiempo atmosférico en la estación meteorológica de Berga, Barcelona (690 m.)



Fecha
DESCASC
Temp. máxima en grados centígrados (hora)
DESCASC
Temp. mínima en grados centígrados (hora)
DESCASC
Temp. media en grados centígrados
DESCASC
Racha de viento máxima en m/sg (hora)
DESCASC
Velocidad máxima media en intervalos de 10 minutos(hora)
DESCASC
Precipitaciones diarias en mm
DESCASC
Precipitaciones de 00:00 a 06:00 en mm
DESCASC
Precipitaciones de 06:00 a 12:00 en mm
DESCASC
Precipitaciones de 12:00 a 18:00 en mm
DESCASC
Precipitaciones de 18:00 a 24:00 en mm
DESCASC
05-12-2019 11.5 (14:20) 7.5 (23:59) 9.5 8.61 (02:20) 4.72 (00:50) 1 0.8 0.2 0 0
04-12-2019 12.1 (13:30) 7.6 (00:40) 9.9 14.44 (15:10) 6.67 (14:20) 3.6 0 0 1.4 2.2
03-12-2019 11.2 (15:40) -0.3 (00:00) 5.4 8.61 (23:10) 4.44 (23:30) 0 0 0 0 0
02-12-2019 13.1 (14:50) 2.8 (00:00) 8 5.83 (16:00) 3.89 (15:50) 0 0 0 0 0
01-12-2019 12.8 (14:40) 6.5 (00:00) 9.7 5.28 (15:30) 3.33 (15:40) 0 0 0 0 0
30-11-2019 15.1 (16:10) 6.6 (00:00) 10.9 7.22 (15:50) 4.72 (15:50) 0 0 0 0 0
29-11-2019 15.2 (15:00) 4.4 (00:00) 9.8 5.28 (16:00) 3.06 (13:40) 0 0 0 0 0
28-11-2019 15.1 (15:30) 3.3 (00:00) 9.2 10 (16:30) 7.22 (16:00) 0 0 0 0 0
27-11-2019 14 (15:10) 7.4 (00:00) 10.7 15 (04:00) 9.17 (04:50) 0 0 0 0 0
26-11-2019 12.7 (14:30) 2.4 (00:00) 7.5 4.72 (09:00) 2.78 (09:00) 0.2 0 0 0 0.2
25-11-2019 12.9 (15:30) 1.1 (00:00) 7 4.72 (23:10) 2.5 (07:30) 0 0 0 0 0
24-11-2019 12.2 (15:20) 1.6 (00:00) 6.9 4.44 (15:20) 2.78 (13:50) 0 0 0 0 0
23-11-2019 10.3 (14:20) 5.3 (00:00) 7.8 8.06 (02:20) 3.89 (02:20) 4.4 4.4 0 0 0
22-11-2019 8.9 (23:50) 1 (00:00) 4.9 4.17 (23:50) 2.5 (19:20) 34.2 0 0.4 2 31.8
21-11-2019 10.9 (14:40) -0.5 (-00:0) 5.2 6.39 (15:00) 4.17 (14:30) 0 0 0 0 0
20-11-2019 10.4 (15:00) -1.5 (-00:0) 4.4 7.22 (15:40) 4.72 (15:40) 0 0 0 0 0
19-11-2019 8.6 (15:10) -2.6 (-00:0) 3 5.28 (13:50) 2.78 (13:30) 0 0 0 0 0
18-11-2019 10.5 (16:00) 0.5 (00:00) 5.5 6.39 (16:30) 3.89 (15:20) 0 0 0 0 0
17-11-2019 7.7 (16:20) -3 (-00:0) 2.3 3.89 (11:40) 2.5 (11:50) 0 0 0 0 0
16-11-2019 8.4 (14:50) -0.9 (-00:0) 3.7 6.39 (15:00) 3.61 (07:10) 0 0 0 0 0
15-11-2019 8.3 (15:20) -0.1 (00:00) 4.1 7.22 (16:40) 5 (16:40) 0 0 0 0 0
14-11-2019 6.9 (13:20) 2.2 (00:00) 4.6 10.28 (13:50) 6.39 (13:50) 3 0 2.4 0.6 0
13-11-2019 11.3 (14:40) 1.6 (00:00) 6.5 5 (16:10) 2.78 (16:10) 0 0 0 0 0
12-11-2019 15.2 (14:50) 4.2 (00:00) 9.7 11.67 (04:20) 6.67 (05:10) 0 0 0 0 0
11-11-2019 10 (15:30) -0.5 (06:40) 4.8 9.44 (23:20) 4.17 (22:10) 0 0 0 0 0
10-11-2019 11.8 (14:50) 1.7 (00:00) 6.8 8.33 (16:10) 3.89 (16:00) 1.8 1.8 0 0 0
09-11-2019 10.3 (13:30) -0.3 (00:00) 5 6.39 (13:50) 4.17 (13:50) 0 0 0 0 0
08-11-2019 9.3 (15:30) 1.6 (00:00) 5.5 10 (16:30) 5.28 (16:00) 0 0 0 0 0

Gráficas

Temp. máximas Temp. mínimas Temp. medias Precipitaciones Rachas de viento máximas Velocidades máximas media en intervalos de 10 minutos

Datos horarios

Fecha y hora oficial Temperatura (ºC) Velocidad del viento (km/h) Dirección del viento Racha (km/h) Dirección de racha Precipitación (mm) Presión (hPa) Tendencia (hPa) Humedad (%)
2019-12-07 23:00:00 5.6 7 Este 15 Este 0 -- -- 85
2019-12-07 22:00:00 5.3 7 Este 17 Este 0 -- -- 88
2019-12-07 21:00:00 5.8 8 Este 12 Este 0 -- -- 88
2019-12-07 20:00:00 6.7 5 Este 10 Este 0 -- -- 86
2019-12-07 19:00:00 7.6 5 Este 8 Este 0 -- -- 86
2019-12-07 18:00:00 9.2 0 Calma 6 Sudoeste 0 -- -- 80
2019-12-07 17:00:00 11.5 4 Sudoeste 14 Sudoeste 0 -- -- 73
2019-12-07 16:00:00 13.1 7 Sudoeste 13 Sudoeste 0 -- -- 66
2019-12-07 15:00:00 12.7 6 Sudoeste 15 Sudoeste 0 -- -- 65
2019-12-07 14:00:00 12 8 Sudoeste 12 Sudoeste 0 -- -- 72
2019-12-07 13:00:00 10.5 7 Sudoeste 12 Sudoeste 0 -- -- 78
2019-12-07 12:00:00 9.2 6 Oeste 9 Sudoeste 0 -- -- 82
2019-12-07 11:00:00 7.2 4 Sudoeste 12 Oeste 0 -- -- 87
2019-12-07 10:00:00 5.6 0 Calma 5 Sudoeste 0 -- -- 91
2019-12-07 09:00:00 3.1 2 Norte 8 Este 0 -- -- 90
2019-12-07 08:00:00 3 5 Este 9 Este 0 -- -- 91
2019-12-07 07:00:00 3.3 0 Calma 13 Nordeste 0 -- -- 92
2019-12-07 06:00:00 3.8 3 Nordeste 6 Nordeste 0 -- -- 94
2019-12-07 05:00:00 3.8 3 Nordeste 10 Nordeste 0 -- -- 92
2019-12-07 04:00:00 4.2 3 Nordeste 10 Este 0 -- -- 92
2019-12-07 03:00:00 4.9 3 Nordeste 9 Este 0 -- -- 92
2019-12-07 02:00:00 6 3 Este 7 Sudoeste 0 -- -- 93
2019-12-07 01:00:00 5.8 3 Este 7 Este 0 -- -- 93
2019-12-07 00:00:00 5.9 3 Este 5 Este 0 -- -- 94
2019-12-06 23:00:00 5.9 3 Nordeste 5 Sudoeste 0 -- -- 94
2019-12-06 22:00:00 6 2 Este 6 Este 0 -- -- 93
2019-12-06 21:00:00 6.4 0 Calma 6 Sudoeste 0 -- -- 93
2019-12-06 20:00:00 6.7 2 Sur 9 Sudoeste 0 -- -- 90
2019-12-06 19:00:00 8.2 3 Sudoeste 7 Sudoeste 0 -- -- 87
2019-12-06 18:00:00 9.8 0 Calma 6 Sudoeste 0 -- -- 81
2019-12-06 17:00:00 11.6 5 Sudoeste 14 Sudoeste 0 -- -- 76
2019-12-06 16:00:00 12.5 9 Sudoeste 15 Sudoeste 0 -- -- 72
2019-12-06 15:00:00 13 7 Sudoeste 15 Sudoeste 0 -- -- 70
2019-12-06 14:00:00 12.2 6 Sudoeste 13 Sudoeste 0 -- -- 70
2019-12-06 13:00:00 11.7 7 Sudoeste 13 Sudoeste 0 -- -- 71
2019-12-06 12:00:00 10.5 4 Sudoeste 10 Oeste 0 -- -- 74
2019-12-06 11:00:00 8.5 2 Este 8 Nordeste 0 -- -- 75
2019-12-06 10:00:00 5.8 6 Este 12 Este 0 -- -- 86
2019-12-06 09:00:00 4 8 Este 12 Este 0 -- -- 90
2019-12-06 08:00:00 4.6 7 Este 13 Este 0 -- -- 87
2019-12-06 07:00:00 5.2 8 Este 16 Este 0 -- -- 86
2019-12-06 06:00:00 5.6 8 Este 14 Este 0 -- -- 87
2019-12-06 05:00:00 5.3 7 Este 12 Este 0 -- -- 89
2019-12-06 04:00:00 4.8 7 Este 11 Nordeste 0 -- -- 91
2019-12-06 03:00:00 5.3 7 Este 11 Este 0 -- -- 88
2019-12-06 02:00:00 6 8 Este 14 Nordeste 0 -- -- 87
2019-12-06 01:00:00 6.9 4 Nordeste 11 Este 0 -- -- 87
2019-12-06 00:00:00 7.5 0 Calma 8 Nordeste 0 -- -- 86
2019-12-05 23:00:00 8.3 6 Norte 13 Este 0 -- -- 80
2019-12-05 22:00:00 8.3 5 Este 12 Este 0 -- -- 81
2019-12-05 21:00:00 8.2 6 Este 11 Nordeste 0 -- -- 84
2019-12-05 20:00:00 8.5 2 Norte 7 Sur 0 -- -- 81
2019-12-05 19:00:00 9.8 2 Oeste 7 Sur 0 -- -- 78
2019-12-05 18:00:00 10.5 0 Calma 7 Este 0 -- -- 73
2019-12-05 17:00:00 11.2 3 Este 14 Este 0 -- -- 69
2019-12-05 16:00:00 11.5 4 Este 10 Este 0 -- -- 69
2019-12-05 15:00:00 11.5 5 Nordeste 21 Este 0 -- -- 67
2019-12-05 14:00:00 11.1 9 Este 22 Nordeste 0 -- -- 73
2019-12-05 13:00:00 10.6 9 Este 16 Nordeste 0 -- -- 76
2019-12-05 12:00:00 10.6 4 Este 23 Nordeste 0 -- -- 74
2019-12-05 11:00:00 9.9 14 Nordeste 27 Este 0 -- -- 76
2019-12-05 10:00:00 9.4 10 Nordeste 20 Este 0 -- -- 82
2019-12-05 09:00:00 9.8 12 Nordeste 28 Nordeste 0 -- -- 76
2019-12-05 08:00:00 9.4 12 Nordeste 26 Este 0 -- -- 80
2019-12-05 07:00:00 8.9 9 Nordeste 24 Nordeste 0.2 -- -- 84
2019-12-05 06:00:00 9.3 12 Nordeste 26 Este 0.2 -- -- 79
2019-12-05 05:00:00 9.6 13 Nordeste 28 Nordeste 0 -- -- 76
2019-12-05 04:00:00 9.6 7 Nordeste 30 Nordeste 0 -- -- 76
2019-12-05 03:00:00 9.6 10 Nordeste 31 Este 0 -- -- 74
2019-12-05 02:00:00 8.9 13 Nordeste 25 Nordeste 0 -- -- 77
2019-12-05 01:00:00 8.5 16 Nordeste 29 Nordeste 0.6 -- -- 80
2019-12-05 00:00:00 8.1 9 Nordeste 42 Este 1.4 -- -- 83
2019-12-04 23:00:00 9.4 17 Nordeste 39 Este 0.4 -- -- 76
2019-12-04 22:00:00 9.8 17 Nordeste 36 Este 0 -- -- 73
2019-12-04 21:00:00 9.3 14 Nordeste 33 Este 0.4 -- -- 80
2019-12-04 20:00:00 10.1 18 Nordeste 38 Este 0 -- -- 75
2019-12-04 19:00:00 9.8 16 Nordeste 40 Este 0 -- -- 74
2019-12-04 18:00:00 9.6 15 Nordeste 52 Nordeste 0 -- -- 75
2019-12-04 17:00:00 9.8 23 Nordeste 42 Nordeste 1.4 -- -- 74
2019-12-04 16:00:00 10.8 16 Nordeste 52 Este 0 -- -- 69
2019-12-04 15:00:00 11.2 17 Nordeste 46 Nordeste 0 -- -- 65
2019-12-04 14:00:00 11.8 19 Nordeste 46 Nordeste 0 -- -- 63
2019-12-04 13:00:00 11.5 19 Nordeste 45 Este 0 -- -- 64
2019-12-04 12:00:00 11.9 13 Este 40 Este 0 -- -- 62
2019-12-04 11:00:00 11.1 15 Este 42 Nordeste 0 -- -- 65
2019-12-04 10:00:00 10.3 10 Este 29 Nordeste 0 -- -- 68
2019-12-04 09:00:00 9.8 12 Nordeste 38 Nordeste 0 -- -- 70
2019-12-04 08:00:00 8.8 6 Nordeste 38 Este 0 -- -- 73
2019-12-04 07:00:00 9.5 16 Nordeste 31 Este 0 -- -- 69
2019-12-04 06:00:00 7.6 4 Este 13 Este 0 -- -- 71
2019-12-04 05:00:00 8.5 6 Este 24 Nordeste 0 -- -- 66
2019-12-04 04:00:00 8.9 8 Este 26 Nordeste 0 -- -- 64
2019-12-04 03:00:00 8.3 6 Este 22 Nordeste 0 -- -- 67
2019-12-04 02:00:00 8.3 7 Nordeste 22 Nordeste 0 -- -- 67
2019-12-04 01:00:00 8.2 12 Nordeste 25 Este 0 -- -- 68
2019-12-04 00:00:00 8.3 12 Nordeste 31 Nordeste 0 -- -- 67
2019-12-03 23:00:00 7.2 9 Este 23 Nordeste 0 -- -- 69
2019-12-03 22:00:00 6.8 4 Este 21 Nordeste 0 -- -- 70
2019-12-03 21:00:00 6.8 4 Este 15 Nordeste 0 -- -- 72
2019-12-03 20:00:00 8.4 9 Este 23 Nordeste 0 -- -- 63
2019-12-03 19:00:00 8.5 5 Este 17 Nordeste 0 -- -- 64
2019-12-03 18:00:00 9.6 9 Este 22 Nordeste 0 -- -- 61
2019-12-03 17:00:00 10 8 Nordeste 21 Este 0 -- -- 62
2019-12-03 16:00:00 10.9 9 Este 24 Este 0 -- -- 57
2019-12-03 15:00:00 10.8 9 Este 21 Este 0 -- -- 55
2019-12-03 14:00:00 10.8 5 Sudoeste 12 Sudoeste 0 -- -- 60
2019-12-03 13:00:00 8.9 6 Sudoeste 13 Sudoeste 0 -- -- 68
2019-12-03 12:00:00 6.4 7 Sudoeste 13 Sudoeste 0 -- -- 79
2019-12-03 11:00:00 4.8 6 Sudoeste 10 Sudoeste 0 -- -- 83
2019-12-03 10:00:00 2.2 4 Sur 9 Sudoeste 0 -- -- 93
2019-12-03 09:00:00 0.2 3 Este 8 Este 0 -- -- 85
2019-12-03 08:00:00 -0.2 4 Nordeste 10 Nordeste 0 -- -- 87
2019-12-03 07:00:00 -0.2 4 Este 10 Este 0 -- -- 90
2019-12-03 06:00:00 0.3 4 Este 9 Este 0 -- -- 88
2019-12-03 05:00:00 0.3 6 Este 10 Este 0 -- -- 89
2019-12-03 04:00:00 0.9 4 Este 9 Este 0 -- -- 87
2019-12-03 03:00:00 1.7 5 Este 11 Este 0 -- -- 84
2019-12-03 02:00:00 2.6 8 Este 16 Nordeste 0 -- -- 82
2019-12-03 01:00:00 2.7 4 Nordeste 12 Nordeste 0 -- -- 83
2019-12-03 00:00:00 2.8 5 Nordeste 12 Este 0 -- -- 84
2019-12-02 23:00:00 3.6 3 Nordeste 11 Este 0 -- -- 83
2019-12-02 22:00:00 4.1 5 Este 10 Nordeste 0 -- -- 82
2019-12-02 21:00:00 5 5 Este 12 Este 0 -- -- 78
2019-12-02 20:00:00 6 5 Nordeste 11 Este 0 -- -- 75
2019-12-02 19:00:00 7.1 4 Este 7 Este 0 -- -- 73
2019-12-02 18:00:00 8.8 3 Sudeste 9 Este 0 -- -- 66
2019-12-02 17:00:00 11.6 4 Sur 19 Sudoeste 0 -- -- 58
2019-12-02 16:00:00 12.6 14 Sudoeste 21 Sudoeste 0 -- -- 51
2019-12-02 15:00:00 13 11 Sudoeste 21 Sudoeste 0 -- -- 57
2019-12-02 14:00:00 12.2 6 Sudoeste 14 Sur 0 -- -- 60
2019-12-02 13:00:00 11.5 7 Sudoeste 13 Sudoeste 0 -- -- 60
2019-12-02 12:00:00 10.4 8 Sudoeste 14 Sudoeste 0 -- -- 64
2019-12-02 11:00:00 7.9 5 Este 10 Este 0 -- -- 67
2019-12-02 10:00:00 5.4 6 Este 12 Este 0 -- -- 73
2019-12-02 09:00:00 5.2 4 Noroeste 13 Este 0 -- -- 66
2019-12-02 08:00:00 5.5 6 Este 13 Nordeste 0 -- -- 61
2019-12-02 07:00:00 5.2 5 Nordeste 12 Este 0 -- -- 64
2019-12-02 06:00:00 5.3 5 Este 12 Nordeste 0 -- -- 66
2019-12-02 05:00:00 4.5 7 Nordeste 12 Este 0 -- -- 78
2019-12-02 04:00:00 4.6 5 Nordeste 12 Nordeste 0 -- -- 81
2019-12-02 03:00:00 5.5 6 Nordeste 12 Sudeste 0 -- -- 78
2019-12-02 02:00:00 5.9 6 Este 12 Nordeste 0 -- -- 80
2019-12-02 01:00:00 5.9 7 Este 14 Nordeste 0 -- -- 85
2019-12-02 00:00:00 6.5 9 Este 14 Nordeste 0 -- -- 84
2019-12-01 23:00:00 6.8 6 Nordeste 13 Nordeste 0 -- -- 85
2019-12-01 22:00:00 6.7 5 Este 12 Este 0 -- -- 86
2019-12-01 21:00:00 6.9 6 Este 10 Este 0 -- -- 85
2019-12-01 20:00:00 7.3 5 Este 8 Este 0 -- -- 84
2019-12-01 19:00:00 8.5 3 Este 10 Sudeste 0 -- -- 79
2019-12-01 18:00:00 9.4 3 Sudeste 9 Sur 0 -- -- 74
2019-12-01 17:00:00 11.4 6 Sudoeste 18 Sudoeste 0 -- -- 66
2019-12-01 16:00:00 12.4 10 Sudoeste 19 Sudoeste 0 -- -- 62
2019-12-01 15:00:00 12.7 9 Sudoeste 18 Sudoeste 0 -- -- 62
2019-12-01 14:00:00 12.3 7 Sudoeste 16 Sudoeste 0 -- -- 67
2019-12-01 13:00:00 11.5 4 Sudoeste 16 Sudoeste 0 -- -- 78
2019-12-01 12:00:00 10.9 9 Oeste 14 Oeste 0 -- -- 84
2019-12-01 11:00:00 8.8 6 Sudoeste 10 Sudoeste 0 -- -- 93
2019-12-01 10:00:00 8.6 3 Sudoeste 5 Sudeste 0 -- -- 93
2019-12-01 09:00:00 8.1 3 Este 6 Este 0 -- -- 94
2019-12-01 08:00:00 8.1 2 Este 5 Sudoeste 0 -- -- 94
2019-12-01 07:00:00 8.2 4 Oeste 8 Oeste 0 -- -- 94
2019-12-01 06:00:00 8.6 5 Oeste 7 Sudoeste 0 -- -- 95
2019-12-01 05:00:00 9 3 Sudeste 8 Sudoeste 0 -- -- 95
2019-12-01 04:00:00 9.2 3 Nordeste 6 Este 0 -- -- 95
2019-12-01 03:00:00 9.2 4 Sudoeste 10 Sudoeste 0 -- -- 94
2019-12-01 02:00:00 9.4 3 Oeste 10 Sudoeste 0 -- -- 93
2019-12-01 01:00:00 9 0 Calma 8 Este 0 -- -- 91
2019-12-01 00:00:00 9.2 3 Oeste 8 Este 0 -- -- 91
2019-11-30 23:00:00 8.6 7 Nordeste 11 Este 0 -- -- 91
2019-11-30 22:00:00 8.6 2 Este 8 Este 0 -- -- 89
2019-11-30 21:00:00 8.7 6 Este 9 Nordeste 0 -- -- 88
2019-11-30 20:00:00 9.1 5 Este 8 Nordeste 0 -- -- 87
2019-11-30 19:00:00 10 5 Este 6 Este 0 -- -- 85
2019-11-30 18:00:00 11.2 4 Este 10 Sur 0 -- -- 80
2019-11-30 17:00:00 14.1 6 Sudoeste 19 Sudoeste 0 -- -- 68
2019-11-30 16:00:00 15 13 Sudoeste 26 Sudoeste 0 -- -- 67
2019-11-30 15:00:00 13.6 3 Oeste 11 Oeste 0 -- -- 71
2019-11-30 14:00:00 12.5 5 Oeste 10 Noroeste 0 -- -- 75
2019-11-30 13:00:00 10.5 5 Oeste 10 Oeste 0 -- -- 82
2019-11-30 12:00:00 8.6 5 Sudoeste 9 Oeste 0 -- -- 86
2019-11-30 11:00:00 8.3 6 Sudoeste 9 Sudoeste 0 -- -- 89
2019-11-30 10:00:00 7.6 4 Sudoeste 9 Sudoeste 0 -- -- 91
2019-11-30 09:00:00 6.7 0 Calma 6 Oeste 0 -- -- 91
2019-11-30 08:00:00 6.6 4 Este 7 Este 0 -- -- 92
2019-11-30 07:00:00 6.8 4 Este 6 Este 0 -- -- 93
2019-11-30 06:00:00 7.3 3 Este 5 Oeste 0 -- -- 93
2019-11-30 05:00:00 7.8 0 Calma 6 Este 0 -- -- 93
2019-11-30 04:00:00 8.8 0 Calma 5 Sur 0 -- -- 94
2019-11-30 03:00:00 9 3 Sudoeste 4 Sudoeste 0 -- -- 94
2019-11-30 02:00:00 8.9 2 Sudoeste 4 Sudoeste 0 -- -- 94
2019-11-30 01:00:00 9.2 2 Nordeste 6 Sur 0 -- -- 92
2019-11-30 00:00:00 9.6 3 Sudoeste 12 Sudoeste 0 -- -- 92
2019-11-29 23:00:00 10 4 Oeste 5 Oeste 0 -- -- 89
2019-11-29 22:00:00 10.2 0 Calma 7 Sudoeste 0 -- -- 89
2019-11-29 21:00:00 10.3 0 Calma 5 Sudoeste 0 -- -- 88
2019-11-29 20:00:00 11 4 Sudoeste 13 Sudoeste 0 -- -- 85
2019-11-29 19:00:00 12.1 4 Sudeste 6 Sudeste 0 -- -- 78
2019-11-29 18:00:00 12.2 3 Oeste 9 Oeste 0 -- -- 79
2019-11-29 17:00:00 12.7 5 Noroeste 15 Sudoeste 0 -- -- 77
2019-11-29 16:00:00 14 9 Sudoeste 19 Sudoeste 0 -- -- 72
2019-11-29 15:00:00 15.2 9 Sudoeste 14 Oeste 0 -- -- 62
2019-11-29 14:00:00 14.4 9 Oeste 16 Sudoeste 0 -- -- 67
2019-11-29 13:00:00 13.6 8 Oeste 15 Sudoeste 0 -- -- 70
2019-11-29 12:00:00 12.9 5 Oeste 10 Sur 0 -- -- 73
2019-11-29 11:00:00 10.8 6 Sudoeste 9 Sudoeste 0 -- -- 79
2019-11-29 10:00:00 7.6 6 Este 15 Este 0 -- -- 85
2019-11-29 09:00:00 5.6 10 Nordeste 16 Nordeste 0 -- -- 93
2019-11-29 08:00:00 4.8 6 Este 15 Este 0 -- -- 95
2019-11-29 07:00:00 4.7 8 Este 11 Este 0 -- -- 94
2019-11-29 06:00:00 5.2 8 Este 12 Este 0 -- -- 94
2019-11-29 05:00:00 5.8 6 Nordeste 12 Nordeste 0 -- -- 94
2019-11-29 04:00:00 6.4 6 Nordeste 10 Este 0 -- -- 94
2019-11-29 03:00:00 6.6 4 Este 9 Este 0 -- -- 93
2019-11-29 02:00:00 7.8 2 Este 8 Este 0 -- -- 90
2019-11-29 01:00:00 8.6 4 Este 8 Este 0 -- -- 88
2019-11-29 00:00:00 9.3 6 Oeste 12 Sudoeste 0 -- -- 86
2019-11-28 23:00:00 9.7 8 Sudoeste 13 Sur 0 -- -- 84
2019-11-28 22:00:00 9.2 4 Sudoeste 13 Sudoeste 0 -- -- 85
2019-11-28 21:00:00 9.3 3 Norte 9 Este 0 -- -- 84
2019-11-28 20:00:00 9.6 3 Noroeste 11 Oeste 0 -- -- 82
2019-11-28 19:00:00 10.5 5 Este 12 Sur 0 -- -- 76
2019-11-28 18:00:00 11.7 12 Oeste 35 Oeste 0 -- -- 68
2019-11-28 17:00:00 12.3 15 Oeste 36 Sudoeste 0 -- -- 71
2019-11-28 16:00:00 14 26 Oeste 36 Oeste 0 -- -- 60
2019-11-28 15:00:00 14.6 18 Sudoeste 29 Sudoeste 0 -- -- 60
2019-11-28 14:00:00 14 5 Sudoeste 12 Sur 0 -- -- 62
2019-11-28 13:00:00 13.3 7 Sudoeste 13 Sudoeste 0 -- -- 63
2019-11-28 12:00:00 11.9 4 Sudoeste 11 Sudoeste 0 -- -- 70
2019-11-28 11:00:00 9.6 5 Este 11 Este 0 -- -- 76
2019-11-28 10:00:00 6 4 Este 12 Este 0 -- -- 89
2019-11-28 09:00:00 3.7 6 Este 12 Este 0 -- -- 93
2019-11-28 08:00:00 3.8 6 Nordeste 13 Nordeste 0 -- -- 93
2019-11-28 07:00:00 4.3 6 Este 10 Este 0 -- -- 93
2019-11-28 06:00:00 4.8 4 Este 13 Nordeste 0 -- -- 91
2019-11-28 05:00:00 5.5 8 Este 14 Nordeste 0 -- -- 88
2019-11-28 04:00:00 5.8 5 Este 9 Este 0 -- -- 88
2019-11-28 03:00:00 6.5 6 Este 10 Este 0 -- -- 89
2019-11-28 02:00:00 7.1 5 Este 10 Este 0 -- -- 87
2019-11-28 01:00:00 7.6 6 Este 10 Este 0 -- -- 85
2019-11-28 00:00:00 8.3 4 Sudeste 9 Sur 0 -- -- 82
2019-11-27 23:00:00 8.7 3 Este 9 Este 0 -- -- 81
2019-11-27 22:00:00 9.3 4 Nordeste 7 Este 0 -- -- 79
2019-11-27 21:00:00 9.3 4 Este 11 Este 0 -- -- 80
2019-11-27 20:00:00 10.1 4 Nordeste 11 Este 0 -- -- 75
2019-11-27 19:00:00 10 6 Este 13 Nordeste 0 -- -- 77
2019-11-27 18:00:00 10.9 8 Este 25 Noroeste 0 -- -- 74
2019-11-27 17:00:00 12.5 5 Sudoeste 21 Sudoeste 0 -- -- 67
2019-11-27 16:00:00 13.8 4 Este 13 Sudoeste 0 -- -- 65
2019-11-27 15:00:00 13.9 8 Sudoeste 19 Sudoeste 0 -- -- 62
2019-11-27 14:00:00 13.2 4 Sudeste 15 Oeste 0 -- -- 64
2019-11-27 06:00:00 -- -- -- -- -- -- -- -- --
2019-11-27 05:00:00 12.8 28 Oeste 53 Oeste 0 -- -- 72
2019-11-27 04:00:00 12.3 32 Oeste 54 Oeste 0 -- -- 79
2019-11-27 03:00:00 8.5 5 Oeste 14 Oeste 0 -- -- 95
2019-11-27 02:00:00 7.8 4 Noroeste 9 Oeste 0 -- -- 96
2019-11-27 01:00:00 7.5 3 Noroeste 9 Oeste 0 -- -- 95
2019-11-27 00:00:00 7.6 4 Sudoeste 9 Este 0.2 -- -- 95
2019-11-26 23:00:00 7.5 3 Este 8 Este 0 -- -- 94
2019-11-26 22:00:00 7.3 4 Este 9 Este 0 -- -- 93
2019-11-26 21:00:00 7.5 2 Este 6 Este 0 -- -- 92
2019-11-26 20:00:00 8 4 Este 7 Este 0 -- -- 91
2019-11-26 19:00:00 9.1 3 Este 6 Nordeste 0 -- -- 87
2019-11-26 18:00:00 10.1 3 Este 6 Este 0 -- -- 81
2019-11-26 17:00:00 11.7 2 Nordeste 6 Este 0 -- -- 75
2019-11-26 16:00:00 12.2 3 Este 7 Oeste 0 -- -- 72
2019-11-26 15:00:00 12.5 2 Sur 10 Sudoeste 0 -- -- 68
2019-11-26 14:00:00 12.3 5 Oeste 12 Sudoeste 0 -- -- 69
2019-11-26 13:00:00 11.3 6 Sudoeste 14 Sudoeste 0 -- -- 70
2019-11-26 12:00:00 10.3 4 Oeste 13 Sudoeste 0 -- -- 72
2019-11-26 11:00:00 8.5 4 Sudoeste 9 Sudoeste 0 -- -- 79
2019-11-26 10:00:00 5.9 5 Este 12 Nordeste 0 -- -- 84
2019-11-26 09:00:00 3.9 10 Nordeste 17 Este 0 -- -- 88
2019-11-26 08:00:00 2.7 7 Nordeste 13 Este 0 -- -- 90
2019-11-26 07:00:00 2.6 8 Este 13 Este 0 -- -- 91
2019-11-26 06:00:00 2.7 6 Nordeste 13 Este 0 -- -- 89
2019-11-26 05:00:00 3.5 8 Este 15 Este 0 -- -- 87
2019-11-26 04:00:00 3.4 8 Este 13 Este 0 -- -- 88
2019-11-26 03:00:00 3.8 9 Este 13 Este 0 -- -- 87
2019-11-26 02:00:00 4.4 6 Nordeste 14 Nordeste 0 -- -- 83
2019-11-26 01:00:00 4.9 9 Este 14 Nordeste 0 -- -- 83
2019-11-26 00:00:00 5.5 7 Este 17 Nordeste 0 -- -- 80
2019-11-25 23:00:00 5.7 8 Este 14 Este 0 -- -- 80
2019-11-25 22:00:00 5.7 6 Este 13 Este 0 -- -- 81
2019-11-25 21:00:00 6.4 6 Este 12 Este 0 -- -- 79
2019-11-25 20:00:00 7.2 5 Nordeste 10 Nordeste 0 -- -- 77
2019-11-25 19:00:00 8.1 7 Nordeste 15 Nordeste 0 -- -- 76
2019-11-25 18:00:00 8.6 4 Este 6 Este 0 -- -- 76
2019-11-25 17:00:00 11 2 Sudoeste 9 Oeste 0 -- -- 64
2019-11-25 16:00:00 12.6 6 Sudoeste 11 Sudoeste 0 -- -- 62
2019-11-25 15:00:00 12.3 6 Oeste 11 Sudoeste 0 -- -- 60
2019-11-25 14:00:00 11.5 7 Sudoeste 12 Sudoeste 0 -- -- 62
2019-11-25 13:00:00 10.3 4 Sudoeste 11 Oeste 0 -- -- 62
2019-11-25 12:00:00 8.7 8 Sudoeste 13 Sudoeste 0 -- -- 76
2019-11-25 11:00:00 7.1 5 Sudoeste 7 Sudoeste 0 -- -- 80
2019-11-25 10:00:00 4 3 Este 5 Sudoeste 0 -- -- 87
2019-11-25 09:00:00 1.5 4 Este 8 Sur 0 -- -- 92
2019-11-25 08:00:00 1.5 2 Nordeste 15 Nordeste 0 -- -- 91
2019-11-25 07:00:00 1.2 8 Este 12 Este 0 -- -- 93
2019-11-25 06:00:00 2 4 Este 12 Nordeste 0 -- -- 94
2019-11-25 05:00:00 2.5 5 Nordeste 9 Nordeste 0 -- -- 95
2019-11-25 04:00:00 2.5 3 Norte 13 Nordeste 0 -- -- 93
2019-11-25 03:00:00 2.7 6 Nordeste 11 Este 0 -- -- 92
2019-11-25 02:00:00 2.5 6 Este 12 Este 0 -- -- 92
2019-11-25 01:00:00 2.6 4 Este 8 Este 0 -- -- 92
2019-11-25 00:00:00 2.7 5 Este 10 Este 0 -- -- 92
2019-11-24 23:00:00 3.6 5 Este 10 Este 0 -- -- 89
2019-11-24 22:00:00 4.6 5 Este 13 Este 0 -- -- 86
2019-11-24 21:00:00 4.8 5 Nordeste 10 Este 0 -- -- 89
2019-11-24 20:00:00 5.8 5 Este 12 Este 0 -- -- 86
2019-11-24 19:00:00 6.6 5 Este 8 Este 0 -- -- 86
2019-11-24 18:00:00 8.1 4 Este 6 Este 0 -- -- 80
2019-11-24 17:00:00 10.4 3 Este 8 Sur 0 -- -- 71
2019-11-24 16:00:00 11.6 4 Este 16 Oeste 0 -- -- 66
2019-11-24 15:00:00 11.9 5 Sudoeste 15 Sudoeste 0 -- -- 65
2019-11-24 14:00:00 10.3 9 Sudoeste 16 Oeste 0 -- -- 70
2019-11-24 13:00:00 9.3 7 Sudoeste 13 Oeste 0 -- -- 77
2019-11-24 12:00:00 7.8 7 Sudoeste 10 Sudoeste 0 -- -- 75
2019-11-24 11:00:00 6.2 3 Este 9 Sudoeste 0 -- -- 87
2019-11-24 10:00:00 4 5 Sudoeste 9 Oeste 0 -- -- 98
2019-11-24 09:00:00 1.8 5 Sudoeste 12 Este 0 -- -- 98
2019-11-24 08:00:00 2 2 Este 8 Este 0 -- -- 97
2019-11-24 07:00:00 1.9 5 Este 11 Nordeste 0 -- -- 97
2019-11-24 06:00:00 2.7 3 Este 9 Este 0 -- -- 97
2019-11-24 05:00:00 3.2 4 Sudeste 10 Este 0 -- -- 96
2019-11-24 04:00:00 3.9 4 Este 9 Nordeste 0 -- -- 96
2019-11-24 03:00:00 4.5 4 Este 8 Este 0 -- -- 95
2019-11-24 02:00:00 4.7 3 Este 8 Este 0 -- -- 95
2019-11-24 01:00:00 4.9 5 Este 11 Nordeste 0 -- -- 94
2019-11-24 00:00:00 5.3 0 Calma 5 Sur 0 -- -- 93
2019-11-23 23:00:00 5.7 0 Calma 6 Nordeste 0 -- -- 93
2019-11-23 22:00:00 6.5 2 Sudoeste 5 Sudoeste 0 -- -- 92
2019-11-23 21:00:00 6.8 3 Este 5 Este 0 -- -- 91
2019-11-23 20:00:00 7 3 Sudoeste 6 Nordeste 0 -- -- 91
2019-11-23 19:00:00 7.2 3 Oeste 8 Oeste 0 -- -- 90
2019-11-23 18:00:00 8.1 4 Sur 9 Sudeste 0 -- -- 88
2019-11-23 17:00:00 9.2 3 Este 8 Sur 0 -- -- 88
2019-11-23 16:00:00 9.8 0 Calma 9 Sudoeste 0 -- -- 84
2019-11-23 15:00:00 10.1 2 Sudoeste 7 Sudoeste 0 -- -- 85
2019-11-23 14:00:00 10 3 Noroeste 10 Este 0 -- -- 84
2019-11-23 13:00:00 9.3 4 Este 9 Este 0 -- -- 89
2019-11-23 12:00:00 8.6 5 Este 9 Este 0 -- -- 93
2019-11-23 11:00:00 7.3 3 Este 10 Este 0 -- -- 97
2019-11-23 10:00:00 6.3 5 Nordeste 15 Nordeste 0 -- -- 97
2019-11-23 09:00:00 6 3 Este 9 Este 0 -- -- 97
2019-11-23 08:00:00 6.1 3 Este 9 Nordeste 0 -- -- 97
2019-11-23 07:00:00 6 4 Este 12 Este 0 -- -- 96
2019-11-23 06:00:00 6.4 2 Noroeste 7 Oeste 0 -- -- 96
2019-11-23 05:00:00 6.6 2 Este 13 Este 0 -- -- 94
2019-11-23 04:00:00 8 4 Este 19 Sudeste 0 -- -- 92
2019-11-23 03:00:00 8.8 9 Este 29 Sudoeste 0 -- -- 97
2019-11-23 02:00:00 9.5 12 Sudoeste 17 Sudoeste 0.8 -- -- 98
2019-11-23 01:00:00 9 10 Sudoeste 15 Sudoeste 3.6 -- -- 98
2019-11-23 00:00:00 8.9 9 Oeste 15 Oeste 7.2 -- -- 98
2019-11-22 23:00:00 8.4 3 Este 8 Nordeste 8.2 -- -- 97
2019-11-22 22:00:00 8.3 4 Este 9 Este 3.8 -- -- 97
2019-11-22 21:00:00 8.3 6 Sudoeste 13 Sudoeste 6.8 -- -- 97
2019-11-22 20:00:00 8.1 6 Sudoeste 14 Oeste 3.6 -- -- 97
2019-11-22 19:00:00 7.4 7 Sudoeste 10 Sudoeste 2.2 -- -- 96
2019-11-22 18:00:00 7.2 4 Sudoeste 9 Sur 1.8 -- -- 95
2019-11-22 17:00:00 7.3 5 Sur 11 Sur 0.2 -- -- 93
2019-11-22 16:00:00 7.4 4 Oeste 6 Oeste 0 -- -- 91
2019-11-22 15:00:00 7.1 0 Calma 6 Este 0 -- -- 92
2019-11-22 14:00:00 7 3 Este 8 Este 0 -- -- 92
2019-11-22 13:00:00 6.3 5 Este 10 Este 0 -- -- 94
2019-11-22 12:00:00 5.1 5 Este 9 Nordeste 0.4 -- -- 92
2019-11-22 11:00:00 5.3 3 Este 10 Este 0 -- -- 85
2019-11-22 10:00:00 4.2 7 Este 10 Este 0 -- -- 86
2019-11-22 09:00:00 2.9 6 Este 10 Este 0 -- -- 89
2019-11-22 08:00:00 2.6 6 Este 10 Este 0 -- -- 85
2019-11-22 07:00:00 2.4 5 Este 12 Este 0 -- -- 85
2019-11-22 06:00:00 1.4 8 Este 13 Este 0 -- -- 90
2019-11-22 05:00:00 1.6 5 Nordeste 14 Este 0 -- -- 90
2019-11-22 04:00:00 1.3 6 Este 13 Este 0 -- -- 89
2019-11-22 03:00:00 1.6 4 Nordeste 14 Este 0 -- -- 90
2019-11-22 02:00:00 1.4 7 Este 11 Nordeste 0 -- -- 93
2019-11-22 01:00:00 1 6 Este 12 Este 0 -- -- 93
2019-11-22 00:00:00 1.9 6 Este 12 Este 0 -- -- 90
2019-11-21 23:00:00 2.3 7 Este 11 Nordeste 0 -- -- 91
2019-11-21 22:00:00 3 5 Nordeste 9 Este 0 -- -- 89
2019-11-21 21:00:00 3.7 5 Nordeste 10 Nordeste 0 -- -- 89
2019-11-21 20:00:00 4.4 4 Nordeste 8 Este 0 -- -- 86
2019-11-21 19:00:00 5.4 3 Este 8 Este 0 -- -- 82
2019-11-21 18:00:00 6.8 4 Este 8 Este 0 -- -- 75
2019-11-21 17:00:00 8.9 3 Nordeste 14 Este 0 -- -- 68
2019-11-21 16:00:00 9.5 5 Este 16 Sur 0 -- -- 65
2019-11-21 15:00:00 10.3 13 Sudoeste 23 Sudoeste 0 -- -- 61
2019-11-21 14:00:00 10.2 9 Sudoeste 17 Sudoeste 0 -- -- 61
2019-11-21 13:00:00 8.8 5 Sur 13 Sudoeste 0 -- -- 61
2019-11-21 12:00:00 7.3 6 Oeste 11 Sudoeste 0 -- -- 68
2019-11-21 11:00:00 6.3 7 Sudoeste 10 Oeste 0 -- -- 68
2019-11-21 10:00:00 3.9 3 Sudoeste 9 Este 0 -- -- 75
2019-11-21 09:00:00 0.6 6 Este 10 Nordeste 0 -- -- 81
2019-11-21 08:00:00 -- -- -- -- -- -- -- -- --
2019-11-21 07:00:00 -- -- -- -- -- -- -- -- --
2019-11-21 06:00:00 -- -- -- -- -- -- -- -- --
2019-11-21 05:00:00 -- -- -- -- -- -- -- -- --
2019-11-21 04:00:00 -- -- -- -- -- -- -- -- --
2019-11-21 03:00:00 -- -- -- -- -- -- -- -- --
2019-11-21 02:00:00 -- -- -- -- -- -- -- -- --
2019-11-21 01:00:00 -- -- -- -- -- -- -- -- --
2019-11-21 00:00:00 -- -- -- -- -- -- -- -- --
2019-11-20 23:00:00 -- -- -- -- -- -- -- -- --
2019-11-20 22:00:00 -- -- -- -- -- -- -- -- --
2019-11-20 21:00:00 -- -- -- -- -- -- -- -- --
2019-11-20 20:00:00 -- -- -- -- -- -- -- -- --
2019-11-20 19:00:00 4.6 3 Nordeste 7 Sudeste 0 -- -- 76
2019-11-20 18:00:00 5.7 2 Nordeste 15 Sudeste 0 -- -- 73
2019-11-20 17:00:00 7.5 7 Sur 19 Sudoeste 0 -- -- 66
2019-11-20 16:00:00 10 12 Sudoeste 26 Sudoeste 0 -- -- 51
2019-11-20 15:00:00 10.4 14 Sudoeste 22 Oeste 0 -- -- 51
2019-11-20 14:00:00 8.1 4 Sur 11 Sudoeste 0 -- -- 63
2019-11-20 13:00:00 6.5 5 Sudoeste 13 Sudoeste 0 -- -- 66
2019-11-20 12:00:00 4.9 5 Sudoeste 11 Sudoeste 0 -- -- 72
2019-11-20 11:00:00 3.7 2 Sudeste 6 Este 0 -- -- 69
2019-11-20 10:00:00 0.6 4 Este 11 Este 0 -- -- 83
2019-11-20 09:00:00 -0.8 8 Este 13 Este 0 -- -- 86
2019-11-20 08:00:00 -1 7 Nordeste 14 Nordeste 0 -- -- 86
2019-11-20 07:00:00 -1.3 9 Este 14 Este 0 -- -- 88
2019-11-20 06:00:00 -1.3 8 Este 15 Este 0 -- -- 89
2019-11-20 05:00:00 -1 4 Nordeste 13 Este 0 -- -- 88
2019-11-20 04:00:00 -0.8 8 Este 12 Este 0 -- -- 87
2019-11-20 03:00:00 -0.5 9 Este 15 Sudeste 0 -- -- 88
2019-11-20 02:00:00 -0.4 6 Este 12 Este 0 -- -- 88
2019-11-20 01:00:00 0.3 6 Este 13 Este 0 -- -- 85
2019-11-20 00:00:00 0.5 6 Este 13 Este 0 -- -- 84
2019-11-19 23:00:00 1 8 Este 13 Este 0 -- -- 82
2019-11-19 22:00:00 1.1 7 Este 12 Este 0 -- -- 84
2019-11-19 21:00:00 1.8 6 Este 10 Este 0 -- -- 82
2019-11-19 20:00:00 2.5 5 Este 10 Este 0 -- -- 81
2019-11-19 19:00:00 3.8 4 Este 8 Este 0 -- -- 76
2019-11-19 18:00:00 5.2 0 Calma 8 Oeste 0 -- -- 70
2019-11-19 17:00:00 7.6 7 Oeste 13 Sudoeste 0 -- -- 62
2019-11-19 16:00:00 8.4 8 Sudoeste 15 Sudoeste 0 -- -- 59
2019-11-19 15:00:00 8.5 7 Sudoeste 15 Sudoeste 0 -- -- 58
2019-11-19 14:00:00 7.3 8 Sudoeste 19 Sudoeste 0 -- -- 58
2019-11-19 13:00:00 6.1 7 Sudoeste 13 Sudoeste 0 -- -- 61
2019-11-19 12:00:00 4.9 7 Sudoeste 14 Oeste 0 -- -- 67
2019-11-19 11:00:00 3.9 3 Oeste 12 Sudoeste 0 -- -- 72
2019-11-19 10:00:00 1 4 Oeste 9 Oeste 0 -- -- 76
2019-11-19 09:00:00 -1.7 2 Sudeste 13 Este 0 -- -- 81
2019-11-19 08:00:00 -2.5 6 Este 10 Nordeste 0 -- -- 85
2019-11-19 07:00:00 -2.3 3 Este 9 Nordeste 0 -- -- 84
2019-11-19 06:00:00 -2.1 2 Norte 9 Este 0 -- -- 83
2019-11-19 05:00:00 -1.5 4 Este 8 Este 0 -- -- 85
2019-11-19 04:00:00 -1.3 4 Este 9 Este 0 -- -- 84
2019-11-19 03:00:00 -0.8 4 Sudoeste 9 Noroeste 0 -- -- 83
2019-11-19 02:00:00 -0.2 4 Este 10 Este 0 -- -- 80
2019-11-19 01:00:00 0.2 6 Este 10 Este 0 -- -- 82
2019-11-19 00:00:00 1.3 0 Calma 8 Este 0 -- -- 84
2019-11-18 23:00:00 1.7 3 Sudeste 12 Este 0 -- -- 89
2019-11-18 22:00:00 2.2 4 Este 8 Sudoeste 0 -- -- 90
2019-11-18 21:00:00 2.8 4 Sudoeste 11 Norte 0 -- -- 86
2019-11-18 20:00:00 3.4 3 Este 10 Nordeste 0 -- -- 88
2019-11-18 19:00:00 4.1 3 Sudoeste 7 Oeste 0 -- -- 86
2019-11-18 18:00:00 5.5 3 Este 14 Sudeste 0 -- -- 82
2019-11-18 17:00:00 8.5 5 Sur 23 Sudoeste 0 -- -- 72
2019-11-18 16:00:00 10.5 8 Sudoeste 22 Sudoeste 0 -- -- 65
2019-11-18 15:00:00 9.3 9 Sudoeste 21 Sudoeste 0 -- -- 64
2019-11-18 14:00:00 10.4 9 Sudoeste 18 Sudoeste 0 -- -- 62
2019-11-18 13:00:00 9.5 8 Sudoeste 20 Sudoeste 0 -- -- 62
2019-11-18 12:00:00 8.8 10 Sudoeste 17 Sudoeste 0 -- -- 63
2019-11-18 11:00:00 7.4 4 Este 9 Este 0 -- -- 65
2019-11-18 10:00:00 4.8 4 Este 14 Este 0 -- -- 77
2019-11-18 09:00:00 1.7 8 Este 15 Este 0 -- -- 86
2019-11-18 08:00:00 0.7 9 Este 15 Nordeste 0 -- -- 90
2019-11-18 07:00:00 0.7 7 Este 15 Este 0 -- -- 89
2019-11-18 06:00:00 2.2 4 Este 15 Sudeste 0 -- -- 84
2019-11-18 05:00:00 1.8 7 Este 18 Nordeste 0 -- -- 87
2019-11-18 04:00:00 1.5 8 Este 15 Este 0 -- -- 88
2019-11-18 03:00:00 2.4 8 Este 22 Este 0 -- -- 86
2019-11-18 02:00:00 1.8 8 Este 15 Nordeste 0 -- -- 90
2019-11-18 01:00:00 2.5 7 Este 12 Este 0 -- -- 87
2019-11-18 00:00:00 2.7 5 Este 11 Este 0 -- -- 87
2019-11-17 23:00:00 2.9 6 Este 10 Este 0 -- -- 88
2019-11-17 22:00:00 3.4 0 Calma 4 Nordeste 0 -- -- 86
2019-11-17 21:00:00 4 2 Norte 12 Sudeste 0 -- -- 83
2019-11-17 20:00:00 5 4 Este 9 Este 0 -- -- 82
2019-11-17 19:00:00 5.9 2 Este 5 Este 0 -- -- 79
2019-11-17 18:00:00 6.4 4 Este 7 Este 0 -- -- 76
2019-11-17 17:00:00 7.3 3 Este 11 Este 0 -- -- 71
2019-11-17 16:00:00 7.4 4 Este 9 Este 0 -- -- 71
2019-11-17 15:00:00 6.4 4 Nordeste 11 Nordeste 0 -- -- 72
2019-11-17 14:00:00 6.2 4 Este 12 Sudoeste 0 -- -- 73
2019-11-17 13:00:00 5.5 4 Sudoeste 12 Sudoeste 0 -- -- 76
2019-11-17 12:00:00 4 8 Sudoeste 14 Sudoeste 0 -- -- 82
2019-11-17 11:00:00 2.3 4 Sudoeste 11 Sudoeste 0 -- -- 97
2019-11-17 10:00:00 -1.5 3 Oeste 10 Sudoeste 0 -- -- 97
2019-11-17 09:00:00 -2.6 4 Oeste 10 Sudoeste 0 -- -- 97
2019-11-17 08:00:00 -2.9 3 Oeste 9 Sudoeste 0 -- -- 96
2019-11-17 07:00:00 -2.6 3 Este 13 Sudoeste 0 -- -- 96
2019-11-17 06:00:00 -2.2 0 Calma 7 Sudoeste 0 -- -- 94
2019-11-17 05:00:00 -1.7 2 Este 5 Oeste 0 -- -- 93
2019-11-17 04:00:00 -1.5 3 Este 8 Este 0 -- -- 92
2019-11-17 03:00:00 -1.1 3 Este 7 Este 0 -- -- 92
2019-11-17 02:00:00 -0.8 5 Este 10 Este 0 -- -- 91
2019-11-17 01:00:00 -0.5 2 Noroeste 12 Este 0 -- -- 92
2019-11-17 00:00:00 -0.5 6 Este 10 Este 0 -- -- 92
2019-11-16 23:00:00 0.2 4 Este 9 Este 0 -- -- 91
2019-11-16 22:00:00 0.7 4 Nordeste 8 Este 0 -- -- 92
2019-11-16 21:00:00 1.3 0 Calma 12 Nordeste 0 -- -- 89
2019-11-16 20:00:00 1.5 3 Nordeste 6 Este 0 -- -- 88
2019-11-16 19:00:00 2.5 0 Calma 8 Este 0 -- -- 84
2019-11-16 18:00:00 3.6 5 Sudeste 12 Sudeste 0 -- -- 80
2019-11-16 17:00:00 5.6 4 Sur 15 Sudoeste 0 -- -- 72
2019-11-16 16:00:00 7.5 7 Sur 21 Sudoeste 0 -- -- 67
2019-11-16 15:00:00 8.4 12 Sudoeste 23 Sur 0 -- -- 64
2019-11-16 14:00:00 8.1 8 Sudoeste 21 Sudoeste 0 -- -- 64
2019-11-16 13:00:00 7.4 6 Sudoeste 15 Sudoeste 0 -- -- 69
2019-11-16 12:00:00 6.6 9 Oeste 14 Sudoeste 0 -- -- 71
2019-11-16 11:00:00 5.3 4 Sudoeste 10 Oeste 0 -- -- 72
2019-11-16 10:00:00 2.2 5 Este 8 Este 0 -- -- 78
2019-11-16 09:00:00 -0.9 2 Nordeste 10 Este 0 -- -- 86
2019-11-16 08:00:00 -0.3 9 Este 19 Nordeste 0 -- -- 80
2019-11-16 07:00:00 0.1 12 Nordeste 20 Este 0 -- -- 80
2019-11-16 06:00:00 -0.2 9 Nordeste 15 Nordeste 0 -- -- 83
2019-11-16 05:00:00 -0.8 7 Este 14 Este 0 -- -- 90
2019-11-16 04:00:00 -0.7 3 Sur 14 Este 0 -- -- 92
2019-11-16 03:00:00 -0.6 6 Este 10 Este 0 -- -- 93
2019-11-16 02:00:00 -0.5 5 Este 8 Oeste 0 -- -- 92
2019-11-16 01:00:00 0.4 7 Este 20 Este 0 -- -- 92
2019-11-16 00:00:00 0.5 4 Este 12 Este 0 -- -- 93
2019-11-15 23:00:00 0.7 9 Este 12 Este 0 -- -- 91
2019-11-15 22:00:00 1.4 8 Nordeste 14 Nordeste 0 -- -- 91
2019-11-15 21:00:00 2 6 Nordeste 13 Este 0 -- -- 89
2019-11-15 20:00:00 2.4 5 Nordeste 14 Nordeste 0 -- -- 86
2019-11-15 19:00:00 2.6 5 Nordeste 13 Nordeste 0 -- -- 85
2019-11-15 18:00:00 3.9 5 Este 17 Sudoeste 0 -- -- 78
2019-11-15 17:00:00 6 8 Oeste 26 Oeste 0 -- -- 66
2019-11-15 16:00:00 6.6 13 Sudoeste 25 Sudoeste 0 -- -- 66
2019-11-15 15:00:00 8.1 13 Oeste 23 Sudoeste 0 -- -- 63
2019-11-15 14:00:00 6.3 8 Sudeste 20 Sudoeste 0 -- -- 74
2019-11-15 13:00:00 6.9 12 Sudoeste 19 Sudoeste 0 -- -- 75
2019-11-15 12:00:00 6.4 10 Oeste 16 Sudoeste 0 -- -- 76
2019-11-15 11:00:00 5.6 6 Sudoeste 9 Sudoeste 0 -- -- 81
2019-11-15 10:00:00 2.9 5 Este 12 Este 0 -- -- 84
2019-11-15 09:00:00 0.2 6 Este 13 Este 0 -- -- 92
2019-11-15 08:00:00 0 6 Este 12 Este 0 -- -- 91
2019-11-15 07:00:00 0.3 5 Este 13 Nordeste 0 -- -- 89
2019-11-15 06:00:00 1.1 8 Este 18 Este 0 -- -- 87
2019-11-15 05:00:00 1.3 8 Nordeste 22 Nordeste 0 -- -- 89
2019-11-15 04:00:00 1.2 6 Este 11 Nordeste 0 -- -- 95
2019-11-15 03:00:00 1.1 6 Este 12 Este 0 -- -- 97
2019-11-15 02:00:00 0.9 4 Este 9 Este 0 -- -- 96
2019-11-15 01:00:00 1.3 4 Oeste 8 Oeste 0 -- -- 95
2019-11-15 00:00:00 2.2 3 Este 16 Este 0 -- -- 95
2019-11-14 23:00:00 2.3 5 Nordeste 10 Este 0 -- -- 95
2019-11-14 22:00:00 2.6 0 Calma 15 Este 0 -- -- 95
2019-11-14 21:00:00 2.9 4 Nordeste 9 Este 0 -- -- 95
2019-11-14 20:00:00 3.2 3 Nordeste 9 Nordeste 0 -- -- 94
2019-11-14 19:00:00 3.5 3 Norte 11 Nordeste 0 -- -- 94
2019-11-14 18:00:00 4.4 4 Nordeste 17 Sudeste 0 -- -- 91
2019-11-14 17:00:00 5.4 10 Sudoeste 28 Sudoeste 0 -- -- 89
2019-11-14 16:00:00 5.6 4 Este 26 Sudoeste 0 -- -- 94
2019-11-14 15:00:00 5.6 17 Sudoeste 27 Sudoeste 0 -- -- 95
2019-11-14 14:00:00 6.1 20 Sudoeste 37 Sudoeste 0 -- -- 93
2019-11-14 13:00:00 6.6 7 Sudoeste 15 Sur 0.6 -- -- 96
2019-11-14 12:00:00 5.7 7 Oeste 15 Sudoeste 2 -- -- 95
2019-11-14 11:00:00 6 4 Sudeste 9 Oeste 0.2 -- -- 93
2019-11-14 10:00:00 6.1 0 Calma 11 Este 0 -- -- 94
2019-11-14 09:00:00 5.2 4 Nordeste 10 Este 0.2 -- -- 94
2019-11-14 08:00:00 5.1 3 Oeste 6 Este 0 -- -- 92
2019-11-14 07:00:00 5.1 3 Nordeste 7 Este 0 -- -- 92
2019-11-14 06:00:00 5.4 3 Este 5 Este 0 -- -- 91
2019-11-14 05:00:00 5.1 2 Nordeste 12 Nordeste 0 -- -- 92
2019-11-14 04:00:00 5.1 4 Nordeste 12 Nordeste 0 -- -- 92
2019-11-14 03:00:00 5.1 4 Oeste 6 Oeste 0 -- -- 90
2019-11-14 02:00:00 5.1 4 Este 7 Este 0 -- -- 89
2019-11-14 01:00:00 5.3 2 Este 9 Sudeste 0 -- -- 87
2019-11-14 00:00:00 5 6 Este 9 Nordeste 0 -- -- 90
2019-11-13 23:00:00 5.6 3 Este 8 Este 0 -- -- 88
2019-11-13 22:00:00 5.8 5 Este 8 Este 0 -- -- 88
2019-11-13 21:00:00 5.6 3 Este 6 Este 0 -- -- 90
2019-11-13 20:00:00 5.7 0 Calma 9 Sur 0 -- -- 87
2019-11-13 19:00:00 6.7 2 Este 8 Nordeste 0 -- -- 84
2019-11-13 18:00:00 8.2 4 Este 16 Sudoeste 0 -- -- 78
2019-11-13 17:00:00 10.2 5 Sudeste 18 Sudoeste 0 -- -- 71
2019-11-13 16:00:00 10.1 6 Sudoeste 14 Sur 0 -- -- 73
2019-11-13 15:00:00 10.8 7 Sudoeste 18 Sudoeste 0 -- -- 70
2019-11-13 14:00:00 10.6 8 Oeste 14 Oeste 0 -- -- 70
2019-11-13 13:00:00 9.6 3 Sur 8 Sudoeste 0 -- -- 68
2019-11-13 12:00:00 7.6 3 Este 8 Nordeste 0 -- -- 68
2019-11-13 11:00:00 6.3 5 Este 14 Nordeste 0 -- -- 70
2019-11-13 10:00:00 5 5 Este 12 Este 0 -- -- 73
2019-11-13 09:00:00 4.3 7 Este 16 Nordeste 0 -- -- 73
2019-11-13 08:00:00 3.7 8 Este 16 Este 0 -- -- 73
2019-11-13 07:00:00 2.7 7 Nordeste 15 Este 0 -- -- 77
2019-11-13 06:00:00 2.3 9 Nordeste 14 Este 0 -- -- 82
2019-11-13 05:00:00 2.1 4 Nordeste 9 Nordeste 0 -- -- 80
2019-11-13 04:00:00 2.3 10 Nordeste 16 Nordeste 0 -- -- 79
2019-11-13 03:00:00 1.9 7 Este 11 Nordeste 0 -- -- 81
2019-11-13 02:00:00 2.6 2 Este 12 Este 0 -- -- 76
2019-11-13 01:00:00 3.1 5 Este 10 Este 0 -- -- 76
2019-11-13 00:00:00 4.6 3 Nordeste 13 Nordeste 0 -- -- 67
2019-11-12 23:00:00 5 6 Este 10 Este 0 -- -- 67
2019-11-12 22:00:00 5.9 3 Nordeste 12 Este 0 -- -- 62
2019-11-12 21:00:00 6.8 5 Este 9 Este 0 -- -- 57
2019-11-12 20:00:00 8 2 Nordeste 10 Nordeste 0 -- -- 54
2019-11-12 19:00:00 9.5 2 Oeste 8 Este 0 -- -- 47
2019-11-12 18:00:00 11.6 5 Nordeste 21 Norte 0 -- -- 39
2019-11-12 17:00:00 13.8 4 Norte 12 Noroeste 0 -- -- 33
2019-11-12 16:00:00 14.4 8 Sudoeste 19 Sudoeste 0 -- -- 41
2019-11-12 15:00:00 15.2 9 Oeste 23 Oeste 0 -- -- 33
2019-11-12 14:00:00 14.4 10 Nordeste 21 Nordeste 0 -- -- 28
2019-11-12 13:00:00 13.9 8 Oeste 22 Norte 0 -- -- 33
2019-11-12 12:00:00 13 8 Sudoeste 20 Sur 0 -- -- 35
2019-11-12 11:00:00 12.1 6 Sudoeste 14 Sudoeste 0 -- -- 36
2019-11-12 10:00:00 10.8 3 Sudoeste 8 Nordeste 0 -- -- 39
2019-11-12 09:00:00 6.9 5 Este 18 Norte 0 -- -- 51
2019-11-12 08:00:00 7.5 8 Nordeste 31 Nordeste 0 -- -- 44
2019-11-12 07:00:00 7.3 15 Nordeste 31 Este 0 -- -- 45
2019-11-12 06:00:00 8 15 Nordeste 41 Nordeste 0 -- -- 42
2019-11-12 05:00:00 8.1 21 Nordeste 42 Nordeste 0 -- -- 42
2019-11-12 04:00:00 7.9 18 Nordeste 32 Este 0 -- -- 44
2019-11-12 03:00:00 6.4 5 Oeste 31 Nordeste 0 -- -- 54
2019-11-12 02:00:00 7.3 6 Norte 25 Nordeste 0 -- -- 49
2019-11-12 01:00:00 7.1 6 Nordeste 20 Este 0 -- -- 49
2019-11-12 00:00:00 8.8 4 Este 34 Este 0 -- -- 43
2019-11-11 23:00:00 9 14 Nordeste 32 Nordeste 0 -- -- 40
2019-11-11 22:00:00 4.9 8 Nordeste 18 Nordeste 0 -- -- 73
2019-11-11 21:00:00 4.4 4 Nordeste 8 Este 0 -- -- 78
2019-11-11 20:00:00 4.9 3 Este 8 Oeste 0 -- -- 76
2019-11-11 19:00:00 6 3 Oeste 6 Este 0 -- -- 71
2019-11-11 18:00:00 6.9 3 Nordeste 8 Sudeste 0 -- -- 67
2019-11-11 17:00:00 8.6 2 Sur 10 Sudeste 0 -- -- 63
2019-11-11 16:00:00 9.8 4 Este 11 Sudoeste 0 -- -- 59
2019-11-11 15:00:00 9.7 7 Sudoeste 14 Sudoeste 0 -- -- 59
2019-11-11 14:00:00 9 7 Sudoeste 13 Sudoeste 0 -- -- 63
2019-11-11 13:00:00 7.5 6 Sudoeste 14 Sudoeste 0 -- -- 60
2019-11-11 12:00:00 6.4 6 Oeste 12 Sudoeste 0 -- -- 74
2019-11-11 11:00:00 3.5 4 Este 9 Sudoeste 0 -- -- 88
2019-11-11 10:00:00 1.5 6 Oeste 11 Oeste 0 -- -- 93
2019-11-11 09:00:00 0.4 4 Este 9 Nordeste 0 -- -- 93
2019-11-11 08:00:00 0.1 2 Sudoeste 6 Sudoeste 0 -- -- 94
2019-11-11 07:00:00 -0.3 2 Este 8 Sudoeste 0 -- -- 94
2019-11-11 06:00:00 -0.2 6 Sudoeste 9 Sudoeste 0 -- -- 93
2019-11-11 05:00:00 -0.2 6 Este 9 Noroeste 0 -- -- 91
2019-11-11 04:00:00 0.3 4 Sur 8 Sudoeste 0 -- -- 90
2019-11-11 03:00:00 0.7 3 Este 7 Este 0 -- -- 89
2019-11-11 02:00:00 1 2 Oeste 7 Sur 0 -- -- 87
2019-11-11 01:00:00 1.2 7 Oeste 12 Sur 0 -- -- 87
2019-11-11 00:00:00 1.7 6 Oeste 13 Noroeste 0 -- -- 83
2019-11-10 23:00:00 3 9 Oeste 16 Oeste 0 -- -- 78
2019-11-10 22:00:00 4.2 6 Sudeste 10 Sudeste 0 -- -- 78
2019-11-10 21:00:00 4.5 5 Noroeste 8 Sur 0 -- -- 74
2019-11-10 20:00:00 5.1 4 Oeste 10 Este 0 -- -- 65
2019-11-10 19:00:00 6.8 7 Este 19 Nordeste 0 -- -- 50
2019-11-10 18:00:00 8.7 7 Nordeste 17 Este 0 -- -- 40
2019-11-10 17:00:00 10.2 5 Nordeste 30 Nordeste 0 -- -- 37
2019-11-10 16:00:00 10.9 14 Nordeste 26 Este 0 -- -- 34
2019-11-10 15:00:00 11.7 4 Sudoeste 14 Sudoeste 0 -- -- 52
2019-11-10 14:00:00 10.3 9 Sudoeste 16 Sudoeste 0 -- -- 63
2019-11-10 13:00:00 9.8 9 Sudoeste 15 Oeste 0 -- -- 77
2019-11-10 12:00:00 8.3 6 Sudoeste 13 Sudoeste 0 -- -- 85
2019-11-10 11:00:00 6.9 9 Sudoeste 14 Sudoeste 0 -- -- 90
2019-11-10 10:00:00 5.5 6 Sudoeste 14 Sudoeste 0 -- -- 96
2019-11-10 09:00:00 4.8 3 Nordeste 8 Nordeste 0 -- -- 96
2019-11-10 08:00:00 4.2 2 Sur 12 Nordeste 0 -- -- 95
2019-11-10 07:00:00 4.6 4 Este 14 Este 0 -- -- 95
2019-11-10 06:00:00 4.8 4 Nordeste 11 Nordeste 0 -- -- 95
2019-11-10 05:00:00 5.3 4 Sudoeste 15 Este 0 -- -- 93
2019-11-10 04:00:00 5.5 5 Este 14 Sudeste 0 -- -- 94
2019-11-10 03:00:00 5.5 4 Este 8 Este 0.4 -- -- 92
2019-11-10 02:00:00 5.9 5 Este 23 Este 1.4 -- -- 89
2019-11-10 01:00:00 5.9 12 Este 21 Este 0 -- -- 87
2019-11-10 00:00:00 5.7 4 Este 10 Este 0 -- -- 87
2019-11-09 23:00:00 5.8 2 Nordeste 10 Este 0 -- -- 85
2019-11-09 22:00:00 5.9 3 Nordeste 12 Este 0 -- -- 86
2019-11-09 21:00:00 6.1 4 Este 9 Este 0 -- -- 85
2019-11-09 20:00:00 6.6 4 Este 8 Nordeste 0 -- -- 81
2019-11-09 19:00:00 7.2 4 Este 9 Este 0 -- -- 78
2019-11-09 18:00:00 7.4 4 Este 10 Nordeste 0 -- -- 77
2019-11-09 17:00:00 9.3 4 Este 8 Nordeste 0 -- -- 71
2019-11-09 16:00:00 9.3 5 Nordeste 12 Nordeste 0 -- -- 68
2019-11-09 15:00:00 8.7 3 Este 20 Sudeste 0 -- -- 71
2019-11-09 14:00:00 8.7 8 Sur 23 Sudoeste 0 -- -- 69
2019-11-09 13:00:00 9.1 6 Oeste 14 Sudoeste 0 -- -- 69
2019-11-09 12:00:00 7.6 6 Sudoeste 14 Oeste 0 -- -- 74
2019-11-09 11:00:00 6.3 5 Sudoeste 11 Sur 0 -- -- 76
2019-11-09 10:00:00 4.5 4 Sudoeste 10 Sudoeste 0 -- -- 87
2019-11-09 09:00:00 1.3 5 Sur 8 Sur 0 -- -- 96
2019-11-09 08:00:00 0.3 4 Este 10 Este 0 -- -- 96
2019-11-09 07:00:00 0.1 3 Nordeste 6 Sudoeste 0 -- -- 95
2019-11-09 06:00:00 -0.1 3 Norte 14 Sudoeste 0 -- -- 96
2019-11-09 05:00:00 -0.1 8 Oeste 19 Sudoeste 0 -- -- 95
2019-11-09 04:00:00 0 5 Oeste 12 Sudoeste 0 -- -- 95
2019-11-09 03:00:00 0.5 5 Sudoeste 18 Sudoeste 0 -- -- 95
2019-11-09 02:00:00 1.1 6 Sudoeste 12 Sudoeste 0 -- -- 93
2019-11-09 01:00:00 1.2 5 Este 10 Este 0 -- -- 93
2019-11-09 00:00:00 1.6 2 Este 9 Este 0 -- -- 91
2019-11-08 23:00:00 2.2 2 Norte 10 Este 0 -- -- 90
2019-11-08 22:00:00 2.8 4 Este 8 Este 0 -- -- 89
2019-11-08 21:00:00 3 5 Este 13 Nordeste 0 -- -- 87
2019-11-08 20:00:00 4 6 Este 11 Este 0 -- -- 84
2019-11-08 19:00:00 4.9 5 Este 14 Sudoeste 0 -- -- 80
2019-11-08 18:00:00 6.8 3 Sur 17 Noroeste 0 -- -- 69
2019-11-08 17:00:00 8.8 12 Oeste 36 Oeste 0 -- -- 61
2019-11-08 16:00:00 8.8 19 Oeste 32 Oeste 0 -- -- 62
2019-11-08 15:00:00 9.1 5 Este 12 Sudoeste 0 -- -- 69
2019-11-08 14:00:00 7.7 5 Nordeste 10 Nordeste 0 -- -- 75
2019-11-08 13:00:00 6 3 Este 10 Sudoeste 0 -- -- 80
2019-11-08 12:00:00 5 3 Nordeste 10 Nordeste 0 -- -- 87
2019-11-08 11:00:00 4 5 Sudoeste 14 Sudoeste 0 -- -- 93
2019-11-08 10:00:00 4.1 7 Sudoeste 14 Sudoeste 0 -- -- 97
2019-11-08 09:00:00 2.7 3 Sudoeste 9 Sudoeste 0 -- -- 97
2019-11-08 08:00:00 2.4 5 Nordeste 9 Este 0 -- -- 97
2019-11-08 07:00:00 2.1 4 Oeste 7 Oeste 0 -- -- 97
2019-11-08 06:00:00 2.2 5 Sudoeste 9 Sudoeste 0 -- -- 96
2019-11-08 05:00:00 3.1 2 Este 8 Nordeste 0 -- -- 95
2019-11-08 04:00:00 3.4 6 Sudoeste 10 Sudoeste 0 -- -- 95
2019-11-08 03:00:00 3.8 0 Calma 6 Sur 0 -- -- 96
2019-11-08 02:00:00 3.4 4 Sudoeste 8 Sur 0 -- -- 96
2019-11-08 01:00:00 3.5 3 Este 9 Sur 0 -- -- 94
2019-11-08 00:00:00 3.5 3 Este 10 Este 0 -- -- 94